createdAt,value
2022-12-08T00:02:22.125Z,4.05
2022-12-08T00:05:09.419Z,5.75
2022-12-08T00:07:58.713Z,5.38
2022-12-08T00:10:48.500Z,4.57
2022-12-08T00:13:16.104Z,5.78
2022-12-08T00:15:44.546Z,5.63
2022-12-08T00:18:12.670Z,6.43
2022-12-08T00:20:41.427Z,5.40
2022-12-08T00:23:10.198Z,5.50
2022-12-08T00:25:38.897Z,9.13
2022-12-08T00:28:07.529Z,6.15
2022-12-08T00:30:36.490Z,6.57
2022-12-08T00:33:05.129Z,7.05
2022-12-08T00:35:35.644Z,6.28
2022-12-08T00:38:06.513Z,6.53
2022-12-08T00:40:35.154Z,7.90
2022-12-08T00:43:03.782Z,6.10
2022-12-08T00:45:32.217Z,5.90
2022-12-08T00:48:00.872Z,6.88
2022-12-08T00:50:29.489Z,6.82
2022-12-08T00:52:57.845Z,8.73
2022-12-08T00:55:27.056Z,9.68
2022-12-08T00:57:55.721Z,6.13
2022-12-08T01:00:24.411Z,6.65
2022-12-08T01:02:52.881Z,6.55
2022-12-08T01:05:21.649Z,5.78
2022-12-08T01:07:50.826Z,7.28
2022-12-08T01:10:19.272Z,6.35
2022-12-08T01:12:47.896Z,6.05
2022-12-08T01:15:16.884Z,11.77
2022-12-08T01:17:45.276Z,7.50
2022-12-08T01:20:13.995Z,4.55
2022-12-08T01:22:42.615Z,6.35
2022-12-08T01:25:11.794Z,4.82
2022-12-08T01:27:40.389Z,6.50
2022-12-08T01:30:09.780Z,6.57
2022-12-08T01:32:38.198Z,6.85
2022-12-08T01:35:07.167Z,8.02
2022-12-08T01:37:35.802Z,5.68
2022-12-08T01:40:05.004Z,7.10
2022-12-08T01:42:35.834Z,5.90
2022-12-08T01:45:08.746Z,3.10
2022-12-08T01:47:44.337Z,6.15
2022-12-08T01:50:15.152Z,4.78
2022-12-08T01:52:51.082Z,5.20
2022-12-08T01:55:24.532Z,4.03
2022-12-08T01:57:59.989Z,3.42
2022-12-08T02:00:28.364Z,7.05
2022-12-08T02:03:06.561Z,5.78
2022-12-08T02:05:40.965Z,8.93
2022-12-08T02:08:12.423Z,4.10
2022-12-08T02:10:42.955Z,5.35
2022-12-08T02:13:19.895Z,4.78
2022-12-08T02:16:22.121Z,5.45
2022-12-08T02:19:28.627Z,5.40
2022-12-08T02:22:00.814Z,6.20
2022-12-08T02:24:42.875Z,6.60
2022-12-08T02:27:57.571Z,5.63
2022-12-08T02:30:33.848Z,5.75
2022-12-08T02:33:40.652Z,6.32
2022-12-08T02:36:15.388Z,5.50
2022-12-08T02:39:02.913Z,5.50
2022-12-08T02:41:40.276Z,6.05
2022-12-08T02:44:08.734Z,4.78
2022-12-08T02:46:44.298Z,4.55
2022-12-08T02:49:16.089Z,6.53
2022-12-08T02:51:44.761Z,6.18
2022-12-08T02:54:13.841Z,8.00
2022-12-08T02:57:12.420Z,5.93
2022-12-08T02:59:50.161Z,5.25
2022-12-08T03:02:43.985Z,7.25
2022-12-08T03:05:33.043Z,5.63
2022-12-08T03:08:14.111Z,7.18
2022-12-08T03:10:49.177Z,8.05
2022-12-08T03:13:19.922Z,7.53
2022-12-08T03:15:51.468Z,7.80
2022-12-08T03:18:22.188Z,6.57
2022-12-08T03:20:50.470Z,7.50
2022-12-08T03:23:19.795Z,5.97
2022-12-08T03:26:14.041Z,7.65
2022-12-08T03:31:14.340Z,5.22
2022-12-08T03:33:45.251Z,7.65
2022-12-08T03:36:14.361Z,6.25
2022-12-08T03:38:45.073Z,7.95
2022-12-08T03:41:19.973Z,6.80
2022-12-08T03:43:50.584Z,5.22
2022-12-08T03:48:48.183Z,8.82
2022-12-08T03:51:17.393Z,7.47
2022-12-08T03:53:46.200Z,10.02
2022-12-08T03:56:31.122Z,9.23
2022-12-08T03:59:00.145Z,13.88
2022-12-08T04:01:29.181Z,7.88
2022-12-08T04:03:58.058Z,9.55
2022-12-08T04:06:26.722Z,12.43
2022-12-08T04:08:55.148Z,10.80
2022-12-08T04:11:23.933Z,8.77
2022-12-08T04:13:52.706Z,10.07
2022-12-08T04:16:23.604Z,10.40
2022-12-08T04:18:52.719Z,11.20
2022-12-08T04:21:22.031Z,10.70
2022-12-08T04:23:52.128Z,10.60
2022-12-08T04:26:22.638Z,7.97
2022-12-08T04:28:51.283Z,7.80
2022-12-08T04:31:20.009Z,13.52
2022-12-08T04:33:50.010Z,10.27
2022-12-08T04:36:18.669Z,11.30
2022-12-08T04:38:47.339Z,10.23
2022-12-08T04:41:15.733Z,8.93
2022-12-08T04:43:45.759Z,11.63
2022-12-08T04:46:14.294Z,9.52
2022-12-08T04:48:43.415Z,9.27
2022-12-08T04:51:19.789Z,9.25
2022-12-08T04:53:48.801Z,11.93
2022-12-08T04:56:20.097Z,8.77
2022-12-08T04:58:48.904Z,10.40
2022-12-08T05:01:17.650Z,10.25
2022-12-08T05:03:46.375Z,9.82
2022-12-08T05:06:15.896Z,9.32
2022-12-08T05:08:44.795Z,10.10
2022-12-08T05:11:14.347Z,11.82
2022-12-08T05:13:43.162Z,12.30
2022-12-08T05:16:14.824Z,12.05
2022-12-08T05:18:44.818Z,13.00
2022-12-08T05:21:13.454Z,14.98
2022-12-08T05:23:42.204Z,12.35
2022-12-08T05:26:10.875Z,14.68
2022-12-08T05:28:42.441Z,13.50
2022-12-08T05:31:12.952Z,12.82
2022-12-08T05:33:41.532Z,15.45
2022-12-08T05:36:11.443Z,14.07
2022-12-08T05:38:40.185Z,12.77
2022-12-08T05:41:08.948Z,14.88
2022-12-08T05:43:37.647Z,17.80
2022-12-08T05:46:07.014Z,11.35
2022-12-08T05:48:36.050Z,11.70
2022-12-08T05:51:05.213Z,16.25
2022-12-08T05:53:33.862Z,15.18
2022-12-08T05:56:03.050Z,15.52
2022-12-08T05:58:31.731Z,15.18
2022-12-08T06:01:00.375Z,18.85
2022-12-08T06:03:29.157Z,14.57
2022-12-08T06:05:57.955Z,11.43
2022-12-08T06:08:26.661Z,13.50
2022-12-08T06:10:55.370Z,10.45
2022-12-08T06:13:24.077Z,14.55
2022-12-08T06:15:52.680Z,10.25
2022-12-08T06:18:21.100Z,19.33
2022-12-08T06:20:49.748Z,13.10
2022-12-08T06:23:18.393Z,14.30
2022-12-08T06:25:47.056Z,15.75
2022-12-08T06:28:15.709Z,14.25
2022-12-08T06:30:44.298Z,17.95
2022-12-08T06:33:12.997Z,12.02
2022-12-08T06:35:41.627Z,14.07
2022-12-08T06:38:10.116Z,12.60
2022-12-08T06:40:38.796Z,12.43
2022-12-08T06:43:07.451Z,14.60
2022-12-08T06:45:36.146Z,15.75
2022-12-08T06:48:05.179Z,12.05
2022-12-08T06:50:36.343Z,9.98
2022-12-08T06:53:05.829Z,17.77
2022-12-08T06:58:24.119Z,14.07
2022-12-08T07:00:52.907Z,12.35
2022-12-08T07:03:21.688Z,13.20
2022-12-08T07:05:50.376Z,10.35
2022-12-08T07:08:19.269Z,14.35
2022-12-08T07:10:47.349Z,10.27
2022-12-08T07:13:16.020Z,8.38
2022-12-08T07:15:44.843Z,13.50
2022-12-08T07:18:13.465Z,11.82
2022-12-08T07:20:42.291Z,14.82
2022-12-08T07:23:10.717Z,12.63
2022-12-08T07:25:39.336Z,20.92
2022-12-08T07:28:12.752Z,18.42
2022-12-08T07:30:41.210Z,18.88
2022-12-08T07:33:09.915Z,19.98
2022-12-08T07:35:38.678Z,20.08
2022-12-08T07:38:13.013Z,19.48
2022-12-08T07:40:41.886Z,19.73
2022-12-08T07:43:10.514Z,19.30
2022-12-08T07:45:39.130Z,15.93
2022-12-08T07:48:08.247Z,13.40
2022-12-08T07:50:37.068Z,12.93
2022-12-08T07:53:05.498Z,21.13
2022-12-08T07:55:34.185Z,12.27
2022-12-08T07:58:03.247Z,10.85
2022-12-08T08:00:31.872Z,23.65
2022-12-08T08:03:00.733Z,10.52
2022-12-08T08:05:29.479Z,13.10
2022-12-08T08:07:58.147Z,12.77
2022-12-08T08:10:27.153Z,12.77
2022-12-08T08:12:55.863Z,14.68
2022-12-08T08:15:24.491Z,11.73
2022-12-08T08:17:53.845Z,13.82
2022-12-08T08:20:22.918Z,11.55
2022-12-08T08:22:52.690Z,12.82
2022-12-08T08:25:24.075Z,9.32
2022-12-08T08:27:52.998Z,16.08
2022-12-08T08:30:21.804Z,13.00
2022-12-08T08:32:51.639Z,14.13
2022-12-08T08:35:20.444Z,15.65
2022-12-08T08:37:49.646Z,12.57
2022-12-08T08:40:19.601Z,12.20
2022-12-08T08:42:48.239Z,13.18
2022-12-08T08:45:16.981Z,13.18
2022-12-08T08:47:45.741Z,10.85
2022-12-08T08:50:14.160Z,15.85
2022-12-08T08:52:42.786Z,11.55
2022-12-08T08:55:11.748Z,11.82
2022-12-08T08:57:40.429Z,16.95
2022-12-08T09:00:11.588Z,11.32
2022-12-08T09:02:40.661Z,11.23
2022-12-08T09:05:09.679Z,8.80
2022-12-08T09:07:38.056Z,13.50
2022-12-08T09:10:07.432Z,10.50
2022-12-08T09:12:36.430Z,12.57
2022-12-08T09:15:05.294Z,14.73
2022-12-08T09:17:34.001Z,9.23
2022-12-08T09:20:03.016Z,9.50
2022-12-08T09:22:32.043Z,7.78
2022-12-08T09:25:00.673Z,8.68
2022-12-08T09:27:29.290Z,8.15
2022-12-08T09:29:57.695Z,10.25
2022-12-08T09:32:26.417Z,9.48
2022-12-08T09:34:55.710Z,11.95
2022-12-08T09:37:24.474Z,12.60
2022-12-08T09:39:53.105Z,13.52
2022-12-08T09:42:35.063Z,15.05
2022-12-08T09:45:12.268Z,9.75
2022-12-08T09:47:48.264Z,19.90
2022-12-08T09:50:31.863Z,13.68
2022-12-08T09:53:25.959Z,9.98
2022-12-08T09:56:21.846Z,13.05
2022-12-08T09:59:30.992Z,10.43
2022-12-08T10:01:59.218Z,12.00
2022-12-08T10:04:36.236Z,9.13
2022-12-08T10:07:33.428Z,9.73
2022-12-08T10:10:20.364Z,11.68
2022-12-08T10:12:53.976Z,10.90
2022-12-08T10:18:09.873Z,9.07
2022-12-08T10:20:41.750Z,11.00
2022-12-08T10:23:20.152Z,15.90
2022-12-08T10:25:54.748Z,11.45
2022-12-08T10:28:23.391Z,9.45
2022-12-08T10:30:52.019Z,11.50
2022-12-08T10:33:22.670Z,13.07
2022-12-08T10:36:04.265Z,10.82
2022-12-08T10:38:35.158Z,13.60
2022-12-08T10:41:13.975Z,17.38
2022-12-08T10:43:51.827Z,15.98
2022-12-08T10:46:27.133Z,12.70
2022-12-08T10:49:13.146Z,13.07
2022-12-08T10:51:43.364Z,10.95
2022-12-08T10:54:39.776Z,12.25
2022-12-08T10:57:08.768Z,11.68
2022-12-08T10:59:37.606Z,12.52
2022-12-08T11:02:12.643Z,14.82
2022-12-08T11:04:41.473Z,18.52
2022-12-08T11:07:12.957Z,11.77
2022-12-08T11:09:50.830Z,16.23
2022-12-08T11:12:23.692Z,10.75
2022-12-08T11:15:02.768Z,15.88
2022-12-08T11:17:40.836Z,13.98
2022-12-08T11:20:12.499Z,12.77
2022-12-08T11:22:46.774Z,13.52
2022-12-08T11:25:28.051Z,17.90
2022-12-08T11:28:01.860Z,10.35
2022-12-08T11:30:33.556Z,11.77
2022-12-08T11:33:08.439Z,14.65
2022-12-08T11:35:40.823Z,13.68
2022-12-08T11:38:21.695Z,17.15
2022-12-08T11:40:56.420Z,13.30
2022-12-08T11:43:35.866Z,15.77
2022-12-08T11:46:22.992Z,11.50
2022-12-08T11:49:06.918Z,12.65
2022-12-08T11:51:35.707Z,14.02
2022-12-08T11:54:04.447Z,17.45
2022-12-08T11:57:01.427Z,15.60
2022-12-08T11:59:36.183Z,13.40
2022-12-08T12:02:06.595Z,13.65
2022-12-08T12:04:45.694Z,18.50
2022-12-08T12:07:41.428Z,16.05
2022-12-08T12:10:25.066Z,17.95
2022-12-08T12:13:11.492Z,18.02
2022-12-08T12:15:45.942Z,16.88
2022-12-08T12:18:19.692Z,14.93
2022-12-08T12:21:02.669Z,13.52
2022-12-08T12:23:56.011Z,14.20
2022-12-08T12:26:33.066Z,19.02
2022-12-08T12:29:19.149Z,15.65
2022-12-08T12:31:55.738Z,20.13
2022-12-08T12:34:30.417Z,17.00
2022-12-08T12:37:33.688Z,15.85
2022-12-08T12:40:04.517Z,19.20
2022-12-08T12:42:59.733Z,16.08
2022-12-08T12:45:32.624Z,19.15
2022-12-08T12:48:01.539Z,20.08
2022-12-08T12:50:36.231Z,19.13
2022-12-08T12:53:27.606Z,21.17
2022-12-08T12:56:01.541Z,19.45
2022-12-08T12:58:30.646Z,17.20
2022-12-08T13:01:14.695Z,18.58
2022-12-08T13:03:48.001Z,20.45
2022-12-08T13:06:24.651Z,21.70
2022-12-08T13:08:55.388Z,22.38
2022-12-08T13:11:24.887Z,21.73
2022-12-08T13:14:02.646Z,20.73
2022-12-08T13:16:36.174Z,23.08
2022-12-08T13:21:41.127Z,28.10
2022-12-08T13:24:15.476Z,22.08
2022-12-08T13:27:06.082Z,22.92
2022-12-08T13:29:38.739Z,21.75
2022-12-08T13:32:35.433Z,25.53
2022-12-08T13:35:17.336Z,18.75
2022-12-08T13:37:55.171Z,22.13
2022-12-08T13:40:30.879Z,24.63
2022-12-08T13:43:05.247Z,26.15
2022-12-08T13:46:18.242Z,27.73
2022-12-08T13:57:33.342Z,36.85
2022-12-08T14:00:21.544Z,24.63
2022-12-08T14:02:52.031Z,39.08
2022-12-08T14:05:35.195Z,20.05
2022-12-08T14:11:36.348Z,32.65
2022-12-08T14:15:00.445Z,20.90
2022-12-08T14:17:20.704Z,24.65
2022-12-08T14:20:22.440Z,21.75
2022-12-08T14:22:51.485Z,17.55
2022-12-08T14:25:21.423Z,20.55
2022-12-08T14:27:50.505Z,19.60
2022-12-08T14:30:23.797Z,22.67
2022-12-08T14:32:56.152Z,20.00
2022-12-08T14:35:34.454Z,17.42
2022-12-08T14:38:05.630Z,17.65
2022-12-08T14:40:38.106Z,15.85
2022-12-08T14:43:06.779Z,14.63
2022-12-08T14:45:44.185Z,14.13
2022-12-08T14:48:40.209Z,12.40
2022-12-08T14:51:21.167Z,14.45
2022-12-08T14:54:07.581Z,12.02
2022-12-08T14:56:50.039Z,15.77
2022-12-08T14:59:36.489Z,14.93
2022-12-08T15:02:23.762Z,18.88
2022-12-08T15:04:59.124Z,13.43
2022-12-08T15:07:33.135Z,15.93
2022-12-08T15:10:19.371Z,16.20
2022-12-08T15:13:21.234Z,15.13
2022-12-08T15:15:58.307Z,12.10
2022-12-08T15:18:43.509Z,15.98
2022-12-08T15:21:14.321Z,12.73
2022-12-08T15:23:50.085Z,11.50
2022-12-08T15:26:26.851Z,15.07
2022-12-08T15:28:56.965Z,14.10
2022-12-08T15:31:25.644Z,11.80
2022-12-08T15:33:54.385Z,18.65
2022-12-08T15:36:23.039Z,14.38
2022-12-08T15:38:51.669Z,21.80
2022-12-08T15:41:20.369Z,26.58
2022-12-08T15:43:49.061Z,26.40
2022-12-08T15:46:17.740Z,23.15
2022-12-08T15:48:46.778Z,25.02
2022-12-08T15:51:15.514Z,25.58
2022-12-08T15:53:44.498Z,23.05
2022-12-08T15:56:29.365Z,23.25
2022-12-08T15:58:58.610Z,24.02
2022-12-08T16:01:28.065Z,22.95
2022-12-08T16:09:39.978Z,26.20
2022-12-08T16:13:40.359Z,23.10
2022-12-08T16:18:25.776Z,30.92
2022-12-08T16:21:22.687Z,23.38
2022-12-08T16:23:44.630Z,20.40
2022-12-08T16:26:39.439Z,18.60
2022-12-08T16:29:07.719Z,21.15
2022-12-08T16:31:36.690Z,19.60
2022-12-08T16:34:05.393Z,19.30
2022-12-08T16:36:34.062Z,21.20
2022-12-08T16:39:02.874Z,21.58
2022-12-08T16:41:50.300Z,18.20
2022-12-08T16:44:18.934Z,20.95
2022-12-08T16:46:47.616Z,20.20
2022-12-08T16:49:17.039Z,20.33
2022-12-08T16:51:45.713Z,21.00
2022-12-08T16:54:14.387Z,19.80
2022-12-08T16:56:43.116Z,16.80
2022-12-08T16:59:11.944Z,19.10
2022-12-08T17:01:40.764Z,22.13
2022-12-08T17:06:59.089Z,18.25
2022-12-08T17:09:29.175Z,17.25
2022-12-08T17:12:03.264Z,18.48
2022-12-08T17:14:35.893Z,17.00
2022-12-08T17:17:04.719Z,32.35
2022-12-08T17:19:33.692Z,19.55
2022-12-08T17:22:03.607Z,17.90
2022-12-08T17:24:32.993Z,19.40
2022-12-08T17:27:05.397Z,16.92
2022-12-08T17:29:35.165Z,17.20
2022-12-08T17:32:03.881Z,19.95
2022-12-08T17:34:32.652Z,19.35
2022-12-08T17:37:01.336Z,25.25
2022-12-08T17:39:30.091Z,16.55
2022-12-08T17:41:58.557Z,20.48
2022-12-08T17:44:27.260Z,14.63
2022-12-08T17:46:55.929Z,15.77
2022-12-08T17:49:26.711Z,18.25
2022-12-08T17:51:57.403Z,14.90
2022-12-08T17:54:26.206Z,13.13
2022-12-08T17:56:55.469Z,16.52
2022-12-08T17:59:24.362Z,15.38
2022-12-08T18:01:56.818Z,17.17
2022-12-08T18:04:26.571Z,18.63
2022-12-08T18:06:55.220Z,17.23
2022-12-08T18:09:23.739Z,18.88
2022-12-08T18:11:52.406Z,18.38
2022-12-08T18:14:20.832Z,19.45
2022-12-08T18:16:50.480Z,20.05
2022-12-08T18:19:19.209Z,15.18
2022-12-08T18:21:47.922Z,23.15
2022-12-08T18:24:22.885Z,23.50
2022-12-08T18:26:53.537Z,16.77
2022-12-08T18:29:24.061Z,19.42
2022-12-08T18:31:53.193Z,16.08
2022-12-08T18:34:21.963Z,17.17
2022-12-08T18:36:50.808Z,23.42
2022-12-08T18:39:33.367Z,17.90
2022-12-08T18:42:22.500Z,18.95
2022-12-08T18:45:00.608Z,15.88
2022-12-08T18:47:29.288Z,17.02
2022-12-08T18:49:57.973Z,16.20
2022-12-08T18:52:31.735Z,17.13
2022-12-08T18:55:08.592Z,17.02
2022-12-08T18:57:41.403Z,16.63
2022-12-08T19:00:15.249Z,20.08
2022-12-08T19:02:43.797Z,16.40
2022-12-08T19:05:13.887Z,18.48
2022-12-08T19:07:43.603Z,18.33
2022-12-08T19:10:12.991Z,16.10
2022-12-08T19:12:41.877Z,16.60
2022-12-08T19:15:10.861Z,16.27
2022-12-08T19:17:39.512Z,14.93
2022-12-08T19:20:09.284Z,14.90
2022-12-08T19:22:38.166Z,14.23
2022-12-08T19:25:07.151Z,19.65
2022-12-08T19:27:35.793Z,14.93
2022-12-08T19:30:05.546Z,13.07
2022-12-08T19:32:34.415Z,19.77
2022-12-08T19:35:08.377Z,17.15
2022-12-08T19:37:37.224Z,19.50
2022-12-08T19:40:25.664Z,15.07
2022-12-08T19:43:12.409Z,15.18
2022-12-08T19:45:41.212Z,16.85
2022-12-08T19:48:09.249Z,16.95
2022-12-08T19:50:37.928Z,17.48
2022-12-08T19:53:09.106Z,18.65
2022-12-08T19:55:38.744Z,15.07
2022-12-08T19:58:08.427Z,19.55
2022-12-08T20:00:38.500Z,17.20
2022-12-08T20:03:07.440Z,17.20
2022-12-08T20:05:38.029Z,19.60
2022-12-08T20:08:07.150Z,14.48
2022-12-08T20:10:40.083Z,18.33
2022-12-08T20:13:28.220Z,17.65
2022-12-08T20:15:57.361Z,17.20
2022-12-08T20:18:26.746Z,18.15
2022-12-08T20:20:55.451Z,19.75
2022-12-08T20:23:24.036Z,13.85
2022-12-08T20:25:52.444Z,16.85
2022-12-08T20:28:20.904Z,19.40
2022-12-08T20:30:50.139Z,14.45
2022-12-08T20:33:19.805Z,17.63
2022-12-08T20:35:48.718Z,18.33
2022-12-08T20:38:17.547Z,16.98
2022-12-08T20:40:48.482Z,18.95
2022-12-08T20:43:17.186Z,16.55
2022-12-08T20:45:45.843Z,16.83
2022-12-08T20:48:14.634Z,18.05
2022-12-08T20:50:43.463Z,21.92
2022-12-08T20:53:12.140Z,19.35
2022-12-08T20:55:43.738Z,21.27
2022-12-08T20:58:13.454Z,14.25
2022-12-08T21:00:42.338Z,21.95
2022-12-08T21:03:10.951Z,16.83
2022-12-08T21:05:40.373Z,17.13
2022-12-08T21:08:09.247Z,16.17
2022-12-08T21:10:42.302Z,21.35
2022-12-08T21:13:12.662Z,20.67
2022-12-08T21:15:41.720Z,17.08
2022-12-08T21:18:10.695Z,24.63
2022-12-08T21:20:39.647Z,19.42
2022-12-08T21:23:08.088Z,20.17
2022-12-08T21:25:36.897Z,21.08
2022-12-08T21:28:04.977Z,15.23
2022-12-08T21:30:33.717Z,16.45
2022-12-08T21:33:02.237Z,13.88
2022-12-08T21:35:31.212Z,13.13
2022-12-08T21:38:00.235Z,15.02
2022-12-08T21:40:29.043Z,18.48
2022-12-08T21:42:57.988Z,13.13
2022-12-08T21:45:26.790Z,17.50
2022-12-08T21:47:55.363Z,21.15
2022-12-08T21:50:24.183Z,18.70
2022-12-08T21:52:53.012Z,13.52
2022-12-08T21:55:22.746Z,17.52
2022-12-08T21:57:51.874Z,18.70
2022-12-08T22:00:21.305Z,17.48
2022-12-08T22:02:50.110Z,24.92
2022-12-08T22:05:18.665Z,19.08
2022-12-08T22:07:47.207Z,21.90
2022-12-08T22:10:16.093Z,16.65
2022-12-08T22:12:44.766Z,19.02
2022-12-08T22:15:13.780Z,16.70
2022-12-08T22:17:44.537Z,15.52
2022-12-08T22:20:15.935Z,19.17
2022-12-08T22:22:45.055Z,17.60
2022-12-08T22:25:13.690Z,26.38
2022-12-08T22:27:42.675Z,18.67
2022-12-08T22:30:12.126Z,24.45
2022-12-08T22:32:41.036Z,19.23
2022-12-08T22:35:10.152Z,18.52
2022-12-08T22:37:38.747Z,16.13
2022-12-08T22:40:08.387Z,18.20
2022-12-08T22:42:37.559Z,19.20
2022-12-08T22:45:06.773Z,18.83
2022-12-08T22:47:35.030Z,23.17
2022-12-08T22:50:04.855Z,18.52
2022-12-08T22:52:33.815Z,19.58
2022-12-08T22:55:02.417Z,17.45
2022-12-08T22:57:31.154Z,22.92
2022-12-08T22:59:59.627Z,22.80
2022-12-08T23:02:28.378Z,14.50
2022-12-08T23:04:58.520Z,21.17
2022-12-08T23:07:27.338Z,18.65
2022-12-08T23:09:56.075Z,23.02
2022-12-08T23:12:24.956Z,18.00
2022-12-08T23:14:53.656Z,21.83
2022-12-08T23:17:22.343Z,17.35
2022-12-08T23:19:51.099Z,13.23
2022-12-08T23:22:19.875Z,16.25
2022-12-08T23:24:48.627Z,16.23
2022-12-08T23:27:17.445Z,16.05
2022-12-08T23:29:46.272Z,18.38
2022-12-08T23:32:15.069Z,16.70
2022-12-08T23:34:44.360Z,17.27
2022-12-08T23:37:13.026Z,17.05
2022-12-08T23:39:41.687Z,18.65
2022-12-08T23:42:10.668Z,16.45
2022-12-08T23:44:39.586Z,16.75
2022-12-08T23:47:08.428Z,18.75
2022-12-08T23:49:37.325Z,13.95
2022-12-08T23:52:06.229Z,19.65
2022-12-08T23:54:34.715Z,18.02
2022-12-08T23:57:03.528Z,18.30
2022-12-08T23:59:33.336Z,21.10
